Strona główna
METAR-TAF:

METAR-TAF

Lotnisko :

Bric della Croce

Turyn, Włochy

Szerokość geograficzna: 45-02N, Długość geograficzna: 007-44E, wysokość: 709 m

Aktualna obserwacja pogody

Raport powstał 34 minut temu, godzina 21:55 UTC
Wiatr 2 kt od południowy zachód
Temperatura 5°C
Wilgotność 100%
Ciśnienie 1015 hPa
Widzialność 10 km lub więcej
Brak chmur poniżej 1500 m i brak chmur cumulonimbus

METAR: LIMK 082155Z 23002KT CAVOK 05/05 Q1015 RMK BKN BKN060 VAL NIL VIS MIN 9999

czas: 23:29 (22:29 UTC)


TAF: brakujący

Obserwacja i prognoza pogody dla ponad 4000 lotnisk (raport METAR i TAF).

Dostępne stacje oznaczono żółtymi i czerwonymi punktami na mapie.

Najedź kursorem aby zobaczyć nazwę stacji.

Kliknij aby zobaczyć obserwacje i prognozy pogody.

Aby zmienić mapę: kliknij na zielony przycisk z czarnym krzyżykiem, aby powiększyć; na zielony przycisk z myślnikiem, aby pomniejszyć; na zielone strzałki, aby przejść do map sąsiednich.


METAR-TAF: